sensor_id;sensor_type;location;lat;lon;timestamp;pressure;altitude;pressure_sealevel;temperature;humidity
85836;BME280;76292;47.678;19.066;2024-02-21T00:01:14;100864.84;;;6.74;75.57
85836;BME280;76292;47.678;19.066;2024-02-21T00:03:15;100866.31;;;6.83;75.31
85836;BME280;76292;47.678;19.066;2024-02-21T00:05:15;100862.94;;;6.94;73.63
85836;BME280;76292;47.678;19.066;2024-02-21T00:07:18;100849.00;;;6.96;73.73
85836;BME280;76292;47.678;19.066;2024-02-21T00:09:21;100854.91;;;6.93;73.52
85836;BME280;76292;47.678;19.066;2024-02-21T00:11:21;100849.44;;;7.06;71.62
85836;BME280;76292;47.678;19.066;2024-02-21T00:13:24;100852.19;;;7.06;71.33
85836;BME280;76292;47.678;19.066;2024-02-21T00:15:29;100850.47;;;7.05;71.22
85836;BME280;76292;47.678;19.066;2024-02-21T00:17:29;100851.09;;;7.14;71.11
85836;BME280;76292;47.678;19.066;2024-02-21T00:19:30;100852.13;;;7.13;70.92
85836;BME280;76292;47.678;19.066;2024-02-21T00:21:30;100841.22;;;7.06;71.75
85836;BME280;76292;47.678;19.066;2024-02-21T00:23:31;100853.03;;;7.00;71.75
85836;BME280;76292;47.678;19.066;2024-02-21T00:25:33;100846.03;;;7.04;71.85
85836;BME280;76292;47.678;19.066;2024-02-21T00:27:36;100841.63;;;7.03;72.24
85836;BME280;76292;47.678;19.066;2024-02-21T00:29:36;100842.03;;;7.07;72.17
85836;BME280;76292;47.678;19.066;2024-02-21T00:31:37;100835.06;;;7.04;72.38
85836;BME280;76292;47.678;19.066;2024-02-21T00:33:37;100843.72;;;7.01;72.12
85836;BME280;76292;47.678;19.066;2024-02-21T00:35:40;100840.97;;;7.08;72.13
85836;BME280;76292;47.678;19.066;2024-02-21T00:37:40;100846.47;;;7.08;72.61
85836;BME280;76292;47.678;19.066;2024-02-21T00:39:41;100845.59;;;7.14;72.55
85836;BME280;76292;47.678;19.066;2024-02-21T00:41:42;100852.38;;;7.05;73.16
85836;BME280;76292;47.678;19.066;2024-02-21T00:43:43;100847.72;;;7.05;73.27
85836;BME280;76292;47.678;19.066;2024-02-21T00:45:43;100846.47;;;7.01;73.35
85836;BME280;76292;47.678;19.066;2024-02-21T00:47:46;100850.47;;;7.05;73.30
85836;BME280;76292;47.678;19.066;2024-02-21T00:49:46;100841.63;;;7.03;73.61
85836;BME280;76292;47.678;19.066;2024-02-21T00:51:47;100843.72;;;7.01;73.91
85836;BME280;76292;47.678;19.066;2024-02-21T00:53:50;100847.53;;;6.93;74.09
85836;BME280;76292;47.678;19.066;2024-02-21T00:55:50;100849.66;;;6.98;74.08
85836;BME280;76292;47.678;19.066;2024-02-21T00:57:51;100846.28;;;6.89;73.82
85836;BME280;76292;47.678;19.066;2024-02-21T00:59:51;100844.19;;;6.85;74.82
85836;BME280;76292;47.678;19.066;2024-02-21T01:01:51;100839.13;;;6.95;74.12
85836;BME280;76292;47.678;19.066;2024-02-21T01:03:52;100836.56;;;6.87;74.14
85836;BME280;76292;47.678;19.066;2024-02-21T01:05:53;100825.22;;;6.77;74.25
85836;BME280;76292;47.678;19.066;2024-02-21T01:07:56;100820.56;;;6.84;74.03
85836;BME280;76292;47.678;19.066;2024-02-21T01:09:56;100828.16;;;6.88;73.64
85836;BME280;76292;47.678;19.066;2024-02-21T01:11:57;100823.53;;;6.89;73.58
85836;BME280;76292;47.678;19.066;2024-02-21T01:13:57;100831.97;;;6.81;74.08
85836;BME280;76292;47.678;19.066;2024-02-21T01:15:58;100827.75;;;6.72;74.16
85836;BME280;76292;47.678;19.066;2024-02-21T01:17:58;100833.84;;;6.74;74.02
85836;BME280;76292;47.678;19.066;2024-02-21T01:19:59;100835.13;;;6.78;73.93
85836;BME280;76292;47.678;19.066;2024-02-21T01:21:59;100839.56;;;6.72;73.88
85836;BME280;76292;47.678;19.066;2024-02-21T01:24:02;100830.06;;;6.75;74.03
85836;BME280;76292;47.678;19.066;2024-02-21T01:26:07;100831.75;;;6.76;74.01
85836;BME280;76292;47.678;19.066;2024-02-21T01:28:13;100824.59;;;6.68;74.13
85836;BME280;76292;47.678;19.066;2024-02-21T01:30:13;100819.94;;;6.69;74.08
85836;BME280;76292;47.678;19.066;2024-02-21T01:32:14;100815.53;;;6.68;74.61
85836;BME280;76292;47.678;19.066;2024-02-21T01:34:14;100814.47;;;6.62;74.82
85836;BME280;76292;47.678;19.066;2024-02-21T01:36:17;100822.06;;;6.67;74.44
85836;BME280;76292;47.678;19.066;2024-02-21T01:38:17;100819.75;;;6.57;75.12
85836;BME280;76292;47.678;19.066;2024-02-21T01:40:18;100817.84;;;6.51;75.32
85836;BME280;76292;47.678;19.066;2024-02-21T01:42:18;100811.53;;;6.51;75.43
85836;BME280;76292;47.678;19.066;2024-02-21T01:44:21;100809.44;;;6.53;75.57
85836;BME280;76292;47.678;19.066;2024-02-21T01:46:21;100811.31;;;6.46;75.63
85836;BME280;76292;47.678;19.066;2024-02-21T01:48:23;100803.72;;;6.48;75.69
85836;BME280;76292;47.678;19.066;2024-02-21T01:50:26;100809.84;;;6.43;75.33
85836;BME280;76292;47.678;19.066;2024-02-21T01:52:26;100807.31;;;6.48;75.48
85836;BME280;76292;47.678;19.066;2024-02-21T01:54:27;100809.00;;;6.43;75.48
85836;BME280;76292;47.678;19.066;2024-02-21T01:56:30;100815.94;;;6.38;75.86
85836;BME280;76292;47.678;19.066;2024-02-21T01:58:32;100813.19;;;6.38;75.63
85836;BME280;76292;47.678;19.066;2024-02-21T02:00:34;100809.22;;;6.34;75.71
85836;BME280;76292;47.678;19.066;2024-02-21T02:02:37;100811.09;;;6.27;75.61
85836;BME280;76292;47.678;19.066;2024-02-21T02:04:38;100824.34;;;6.30;75.80
85836;BME280;76292;47.678;19.066;2024-02-21T02:06:40;100810.69;;;6.24;75.69
85836;BME280;76292;47.678;19.066;2024-02-21T02:08:41;100833.84;;;6.28;75.59
85836;BME280;76292;47.678;19.066;2024-02-21T02:10:43;100826.28;;;6.30;75.19
85836;BME280;76292;47.678;19.066;2024-02-21T02:12:43;100827.94;;;6.24;75.83
85836;BME280;76292;47.678;19.066;2024-02-21T02:14:44;100823.94;;;6.20;75.85
85836;BME280;76292;47.678;19.066;2024-02-21T02:16:47;100825.44;;;6.29;75.59
85836;BME280;76292;47.678;19.066;2024-02-21T02:18:50;100823.72;;;6.28;75.83
85836;BME280;76292;47.678;19.066;2024-02-21T02:20:50;100824.78;;;6.21;75.89
85836;BME280;76292;47.678;19.066;2024-02-21T02:22:52;100818.03;;;6.17;76.06
85836;BME280;76292;47.678;19.066;2024-02-21T02:24:52;100824.53;;;6.16;76.31
85836;BME280;76292;47.678;19.066;2024-02-21T02:26:55;100821.63;;;6.17;75.81
85836;BME280;76292;47.678;19.066;2024-02-21T02:28:55;100822.66;;;6.16;75.87
85836;BME280;76292;47.678;19.066;2024-02-21T02:30:56;100821.19;;;6.14;75.83
85836;BME280;76292;47.678;19.066;2024-02-21T02:32:58;100827.06;;;6.11;76.06
85836;BME280;76292;47.678;19.066;2024-02-21T02:34:59;100817.78;;;6.05;76.19
85836;BME280;76292;47.678;19.066;2024-02-21T02:36:59;100823.28;;;5.99;76.38
85836;BME280;76292;47.678;19.066;2024-02-21T02:38:59;100825.38;;;6.03;75.93
85836;BME280;76292;47.678;19.066;2024-02-21T02:41:00;100819.28;;;6.01;76.30
85836;BME280;76292;47.678;19.066;2024-02-21T02:43:00;100819.06;;;6.03;75.84
85836;BME280;76292;47.678;19.066;2024-02-21T02:45:01;100815.25;;;5.97;76.20
85836;BME280;76292;47.678;19.066;2024-02-21T02:47:01;100826.22;;;5.97;76.00
85836;BME280;76292;47.678;19.066;2024-02-21T02:49:01;100824.94;;;5.87;76.12
85836;BME280;76292;47.678;19.066;2024-02-21T02:51:02;100825.13;;;5.85;76.25
85836;BME280;76292;47.678;19.066;2024-02-21T02:53:05;100828.22;;;5.75;76.51
85836;BME280;76292;47.678;19.066;2024-02-21T02:55:08;100824.00;;;5.73;76.89
85836;BME280;76292;47.678;19.066;2024-02-21T02:57:08;100821.66;;;5.63;77.19
85836;BME280;76292;47.678;19.066;2024-02-21T02:59:09;100825.22;;;5.57;77.42
85836;BME280;76292;47.678;19.066;2024-02-21T03:01:12;100819.69;;;5.51;77.70
85836;BME280;76292;47.678;19.066;2024-02-21T03:03:12;100825.22;;;5.57;77.74
85836;BME280;76292;47.678;19.066;2024-02-21T03:05:15;100828.34;;;5.54;77.25
85836;BME280;76292;47.678;19.066;2024-02-21T03:07:15;100828.16;;;5.56;77.73
85836;BME280;76292;47.678;19.066;2024-02-21T03:09:18;100828.09;;;5.43;77.82
85836;BME280;76292;47.678;19.066;2024-02-21T03:11:21;100833.38;;;5.44;77.92
85836;BME280;76292;47.678;19.066;2024-02-21T03:13:28;100840.91;;;5.36;78.34
85836;BME280;76292;47.678;19.066;2024-02-21T03:15:29;100837.13;;;5.43;78.25
85836;BME280;76292;47.678;19.066;2024-02-21T03:17:32;100838.00;;;5.44;78.34
85836;BME280;76292;47.678;19.066;2024-02-21T03:19:34;100841.13;;;5.41;78.60
85836;BME280;76292;47.678;19.066;2024-02-21T03:21:34;100842.56;;;5.37;78.66
85836;BME280;76292;47.678;19.066;2024-02-21T03:23:35;100834.09;;;5.25;78.78
85836;BME280;76292;47.678;19.066;2024-02-21T03:25:37;100845.25;;;5.23;78.35
85836;BME280;76292;47.678;19.066;2024-02-21T03:27:38;100833.44;;;5.16;78.88
85836;BME280;76292;47.678;19.066;2024-02-21T03:29:39;100841.94;;;5.00;79.69
85836;BME280;76292;47.678;19.066;2024-02-21T03:31:44;100845.91;;;4.98;79.96
85836;BME280;76292;47.678;19.066;2024-02-21T03:33:44;100835.63;;;5.00;80.11
85836;BME280;76292;47.678;19.066;2024-02-21T03:35:45;100842.75;;;4.94;80.65
85836;BME280;76292;47.678;19.066;2024-02-21T03:37:48;100840.78;;;4.82;80.60
85836;BME280;76292;47.678;19.066;2024-02-21T03:39:48;100839.00;;;4.74;80.71
85836;BME280;76292;47.678;19.066;2024-02-21T03:41:48;100835.72;;;4.79;80.97
85836;BME280;76292;47.678;19.066;2024-02-21T03:43:49;100830.81;;;4.74;81.05
85836;BME280;76292;47.678;19.066;2024-02-21T03:45:49;100833.31;;;4.69;81.65
85836;BME280;76292;47.678;19.066;2024-02-21T03:47:52;100831.66;;;4.68;81.49
85836;BME280;76292;47.678;19.066;2024-02-21T03:49:52;100834.00;;;4.78;81.22
85836;BME280;76292;47.678;19.066;2024-02-21T03:51:53;100829.78;;;4.75;81.17
85836;BME280;76292;47.678;19.066;2024-02-21T03:53:55;100833.91;;;4.64;81.56
85836;BME280;76292;47.678;19.066;2024-02-21T03:55:56;100834.78;;;4.65;81.66
85836;BME280;76292;47.678;19.066;2024-02-21T03:57:57;100829.94;;;4.67;81.61
85836;BME280;76292;47.678;19.066;2024-02-21T03:59:57;100842.97;;;4.65;81.88
85836;BME280;76292;47.678;19.066;2024-02-21T04:01:58;100833.16;;;4.77;81.43
85836;BME280;76292;47.678;19.066;2024-02-21T04:03:59;100836.56;;;4.79;80.59
85836;BME280;76292;47.678;19.066;2024-02-21T04:05:59;100833.94;;;4.71;81.08
85836;BME280;76292;47.678;19.066;2024-02-21T04:08:04;100826.75;;;4.63;81.14
85836;BME280;76292;47.678;19.066;2024-02-21T04:10:05;100836.44;;;4.66;80.75
85836;BME280;76292;47.678;19.066;2024-02-21T04:12:08;100831.13;;;4.58;80.92
85836;BME280;76292;47.678;19.066;2024-02-21T04:14:11;100824.78;;;4.51;81.55
85836;BME280;76292;47.678;19.066;2024-02-21T04:16:14;100820.69;;;4.40;81.99
85836;BME280;76292;47.678;19.066;2024-02-21T04:18:15;100819.91;;;4.46;81.69
85836;BME280;76292;47.678;19.066;2024-02-21T04:20:16;100822.97;;;4.37;81.96
85836;BME280;76292;47.678;19.066;2024-02-21T04:22:17;100824.25;;;4.41;82.12
85836;BME280;76292;47.678;19.066;2024-02-21T04:24:17;100825.97;;;4.42;81.72
85836;BME280;76292;47.678;19.066;2024-02-21T04:26:18;100830.31;;;4.36;81.89
85836;BME280;76292;47.678;19.066;2024-02-21T04:28:20;100815.97;;;4.28;81.84
85836;BME280;76292;47.678;19.066;2024-02-21T04:30:21;100818.31;;;4.31;82.21
85836;BME280;76292;47.678;19.066;2024-02-21T04:32:23;100818.00;;;4.19;82.05
85836;BME280;76292;47.678;19.066;2024-02-21T04:34:27;100810.66;;;4.20;82.50
85836;BME280;76292;47.678;19.066;2024-02-21T04:36:30;100816.22;;;4.12;82.93
85836;BME280;76292;47.678;19.066;2024-02-21T04:38:33;100820.25;;;4.16;82.64
85836;BME280;76292;47.678;19.066;2024-02-21T04:40:33;100815.91;;;4.21;82.38
85836;BME280;76292;47.678;19.066;2024-02-21T04:42:34;100815.19;;;4.13;82.84
85836;BME280;76292;47.678;19.066;2024-02-21T04:44:34;100815.31;;;4.04;83.10
85836;BME280;76292;47.678;19.066;2024-02-21T04:46:37;100819.47;;;4.00;82.76
85836;BME280;76292;47.678;19.066;2024-02-21T04:48:37;100820.28;;;3.94;83.24
85836;BME280;76292;47.678;19.066;2024-02-21T04:50:37;100815.19;;;3.91;83.48
85836;BME280;76292;47.678;19.066;2024-02-21T04:52:38;100813.59;;;3.97;83.91
85836;BME280;76292;47.678;19.066;2024-02-21T04:54:38;100819.47;;;4.00;83.41
85836;BME280;76292;47.678;19.066;2024-02-21T04:56:39;100819.09;;;4.03;83.36
85836;BME280;76292;47.678;19.066;2024-02-21T04:58:44;100821.94;;;3.95;83.74
85836;BME280;76292;47.678;19.066;2024-02-21T05:00:44;100815.47;;;3.96;83.61
85836;BME280;76292;47.678;19.066;2024-02-21T05:02:45;100829.56;;;4.00;83.94
85836;BME280;76292;47.678;19.066;2024-02-21T05:04:45;100838.69;;;3.92;84.13
85836;BME280;76292;47.678;19.066;2024-02-21T05:06:48;100830.91;;;3.89;84.26
85836;BME280;76292;47.678;19.066;2024-02-21T05:08:48;100828.56;;;3.86;84.68
85836;BME280;76292;47.678;19.066;2024-02-21T05:10:49;100817.00;;;3.84;85.07
85836;BME280;76292;47.678;19.066;2024-02-21T05:12:52;100829.78;;;3.84;85.26
85836;BME280;76292;47.678;19.066;2024-02-21T05:14:52;100825.56;;;3.81;85.55
85836;BME280;76292;47.678;19.066;2024-02-21T05:16:53;100823.78;;;3.88;85.00
85836;BME280;76292;47.678;19.066;2024-02-21T05:18:53;100815.59;;;3.88;84.85
85836;BME280;76292;47.678;19.066;2024-02-21T05:20:54;100824.16;;;3.85;85.41
85836;BME280;76292;47.678;19.066;2024-02-21T05:22:54;100810.94;;;3.89;85.66
85836;BME280;76292;47.678;19.066;2024-02-21T05:24:57;100816.88;;;3.92;85.32
85836;BME280;76292;47.678;19.066;2024-02-21T05:27:00;100821.59;;;3.84;85.93
85836;BME280;76292;47.678;19.066;2024-02-21T05:29:02;100822.72;;;3.89;86.02
85836;BME280;76292;47.678;19.066;2024-02-21T05:31:03;100825.44;;;3.89;85.84
85836;BME280;76292;47.678;19.066;2024-02-21T05:33:05;100835.31;;;3.90;85.98
85836;BME280;76292;47.678;19.066;2024-02-21T05:35:06;100836.19;;;3.91;85.82
85836;BME280;76292;47.678;19.066;2024-02-21T05:37:08;100834.09;;;3.93;85.85
85836;BME280;76292;47.678;19.066;2024-02-21T05:39:09;100831.97;;;3.88;85.91
85836;BME280;76292;47.678;19.066;2024-02-21T05:41:10;100832.22;;;3.93;86.07
85836;BME280;76292;47.678;19.066;2024-02-21T05:43:13;100838.06;;;3.90;85.99
85836;BME280;76292;47.678;19.066;2024-02-21T05:45:13;100826.88;;;3.85;85.89
85836;BME280;76292;47.678;19.066;2024-02-21T05:47:15;100829.06;;;3.75;86.01
85836;BME280;76292;47.678;19.066;2024-02-21T05:49:16;100835.56;;;3.74;85.95
85836;BME280;76292;47.678;19.066;2024-02-21T05:51:16;100835.97;;;3.71;86.12
85836;BME280;76292;47.678;19.066;2024-02-21T05:53:16;100826.28;;;3.69;86.64
85836;BME280;76292;47.678;19.066;2024-02-21T05:55:17;100835.50;;;3.68;86.11
85836;BME280;76292;47.678;19.066;2024-02-21T05:57:20;100837.91;;;3.77;86.29
85836;BME280;76292;47.678;19.066;2024-02-21T05:59:20;100845.44;;;3.75;86.21
85836;BME280;76292;47.678;19.066;2024-02-21T06:01:23;100841.03;;;3.74;86.25
85836;BME280;76292;47.678;19.066;2024-02-21T06:03:24;100832.72;;;3.82;86.20
85836;BME280;76292;47.678;19.066;2024-02-21T06:05:24;100836.63;;;3.94;86.13
85836;BME280;76292;47.678;19.066;2024-02-21T06:07:25;100839.06;;;3.89;85.55
85836;BME280;76292;47.678;19.066;2024-02-21T06:09:25;100847.56;;;3.94;85.76
85836;BME280;76292;47.678;19.066;2024-02-21T06:11:25;100835.75;;;4.09;85.02
85836;BME280;76292;47.678;19.066;2024-02-21T06:13:26;100836.00;;;4.14;84.79
85836;BME280;76292;47.678;19.066;2024-02-21T06:15:27;100844.34;;;4.12;84.84
85836;BME280;76292;47.678;19.066;2024-02-21T06:17:27;100838.47;;;4.09;84.81
85836;BME280;76292;47.678;19.066;2024-02-21T06:19:30;100837.28;;;4.18;84.32
85836;BME280;76292;47.678;19.066;2024-02-21T06:21:30;100834.81;;;4.23;84.37
85836;BME280;76292;47.678;19.066;2024-02-21T06:23:30;100830.25;;;4.30;83.88
85836;BME280;76292;47.678;19.066;2024-02-21T06:25:31;100830.66;;;4.27;83.74
85836;BME280;76292;47.678;19.066;2024-02-21T06:27:34;100826.94;;;4.34;83.49
85836;BME280;76292;47.678;19.066;2024-02-21T06:29:34;100822.84;;;4.45;83.43
85836;BME280;76292;47.678;19.066;2024-02-21T06:31:40;100829.84;;;4.54;82.86
85836;BME280;76292;47.678;19.066;2024-02-21T06:33:43;100820.06;;;4.66;82.35
85836;BME280;76292;47.678;19.066;2024-02-21T06:35:44;100832.38;;;4.83;81.41
85836;BME280;76292;47.678;19.066;2024-02-21T06:37:47;100835.53;;;4.87;81.23
85836;BME280;76292;47.678;19.066;2024-02-21T06:39:53;100828.03;;;4.95;80.91
85836;BME280;76292;47.678;19.066;2024-02-21T06:41:53;100837.78;;;5.11;80.18
85836;BME280;76292;47.678;19.066;2024-02-21T06:43:54;100838.63;;;5.11;80.26
85836;BME280;76292;47.678;19.066;2024-02-21T06:45:57;100833.47;;;5.23;79.80
85836;BME280;76292;47.678;19.066;2024-02-21T06:47:57;100839.81;;;5.30;79.50
85836;BME280;76292;47.678;19.066;2024-02-21T06:50:03;100840.50;;;5.39;79.50
85836;BME280;76292;47.678;19.066;2024-02-21T06:52:06;100844.25;;;5.38;78.99
85836;BME280;76292;47.678;19.066;2024-02-21T06:54:07;100855.47;;;5.49;79.11
85836;BME280;76292;47.678;19.066;2024-02-21T06:56:10;100859.69;;;5.52;78.85
85836;BME280;76292;47.678;19.066;2024-02-21T06:58:10;100865.59;;;5.55;78.71
85836;BME280;76292;47.678;19.066;2024-02-21T07:00:12;100853.41;;;5.58;78.63
85836;BME280;76292;47.678;19.066;2024-02-21T07:02:17;100867.53;;;5.61;78.81
85836;BME280;76292;47.678;19.066;2024-02-21T07:04:18;100871.09;;;5.62;78.67
85836;BME280;76292;47.678;19.066;2024-02-21T07:06:18;100872.38;;;5.66;78.59
85836;BME280;76292;47.678;19.066;2024-02-21T07:08:19;100884.16;;;5.66;78.35
85836;BME280;76292;47.678;19.066;2024-02-21T07:10:19;100881.69;;;5.78;77.85
85836;BME280;76292;47.678;19.066;2024-02-21T07:12:19;100876.91;;;5.87;77.41
85836;BME280;76292;47.678;19.066;2024-02-21T07:14:24;100881.75;;;5.91;76.51
85836;BME280;76292;47.678;19.066;2024-02-21T07:16:25;100880.94;;;5.97;75.76
85836;BME280;76292;47.678;19.066;2024-02-21T07:18:26;100882.22;;;6.08;76.21
85836;BME280;76292;47.678;19.066;2024-02-21T07:20:27;100882.50;;;6.26;74.51
85836;BME280;76292;47.678;19.066;2024-02-21T07:22:27;100882.31;;;6.47;73.40
85836;BME280;76292;47.678;19.066;2024-02-21T07:24:30;100886.97;;;6.47;73.18
85836;BME280;76292;47.678;19.066;2024-02-21T07:26:32;100884.22;;;6.47;73.21
85836;BME280;76292;47.678;19.066;2024-02-21T07:28:32;100886.31;;;6.45;73.56
85836;BME280;76292;47.678;19.066;2024-02-21T07:30:32;100890.75;;;6.52;74.05
85836;BME280;76292;47.678;19.066;2024-02-21T07:32:33;100876.44;;;6.63;73.33
85836;BME280;76292;47.678;19.066;2024-02-21T07:34:33;100886.75;;;6.68;73.33
85836;BME280;76292;47.678;19.066;2024-02-21T07:36:33;100887.59;;;6.81;72.11
85836;BME280;76292;47.678;19.066;2024-02-21T07:38:36;100893.53;;;6.98;70.77
85836;BME280;76292;47.678;19.066;2024-02-21T07:40:37;100905.09;;;7.07;70.62
85836;BME280;76292;47.678;19.066;2024-02-21T07:42:37;100895.16;;;7.19;70.29
85836;BME280;76292;47.678;19.066;2024-02-21T07:44:37;100894.09;;;7.33;69.65
85836;BME280;76292;47.678;19.066;2024-02-21T07:46:40;100896.41;;;7.29;70.88
85836;BME280;76292;47.678;19.066;2024-02-21T07:48:41;100889.69;;;7.25;70.79
85836;BME280;76292;47.678;19.066;2024-02-21T07:50:43;100898.75;;;7.26;70.63
85836;BME280;76292;47.678;19.066;2024-02-21T07:52:44;100894.09;;;7.33;70.48
85836;BME280;76292;47.678;19.066;2024-02-21T07:54:44;100901.25;;;7.40;70.52
85836;BME280;76292;47.678;19.066;2024-02-21T07:56:44;100891.09;;;7.47;70.33
85836;BME280;76292;47.678;19.066;2024-02-21T07:58:45;100900.59;;;7.45;70.33
85836;BME280;76292;47.678;19.066;2024-02-21T08:00:45;100895.72;;;7.53;70.41
85836;BME280;76292;47.678;19.066;2024-02-21T08:02:48;100897.44;;;7.55;70.14
85836;BME280;76292;47.678;19.066;2024-02-21T08:04:53;100892.72;;;7.68;69.93
85836;BME280;76292;47.678;19.066;2024-02-21T08:06:56;100902.84;;;7.74;69.75
85836;BME280;76292;47.678;19.066;2024-02-21T08:08:59;100890.34;;;7.85;69.55
85836;BME280;76292;47.678;19.066;2024-02-21T08:11:00;100882.69;;;7.93;68.97
85836;BME280;76292;47.678;19.066;2024-02-21T08:13:01;100885.44;;;8.00;68.04
85836;BME280;76292;47.678;19.066;2024-02-21T08:15:02;100880.69;;;8.20;68.16
85836;BME280;76292;47.678;19.066;2024-02-21T08:17:09;100882.47;;;8.39;66.96
85836;BME280;76292;47.678;19.066;2024-02-21T08:19:10;100870.94;;;8.55;66.62
85836;BME280;76292;47.678;19.066;2024-02-21T08:21:11;100878.63;;;8.72;65.80
85836;BME280;76292;47.678;19.066;2024-02-21T08:23:15;100882.22;;;8.97;65.06
85836;BME280;76292;47.678;19.066;2024-02-21T08:25:16;100873.44;;;9.13;64.15
85836;BME280;76292;47.678;19.066;2024-02-21T08:27:16;100883.03;;;9.47;62.75
85836;BME280;76292;47.678;19.066;2024-02-21T08:29:16;100887.53;;;9.77;62.45
85836;BME280;76292;47.678;19.066;2024-02-21T08:31:20;100889.53;;;10.36;60.43
85836;BME280;76292;47.678;19.066;2024-02-21T08:33:20;100889.50;;;10.66;58.06
85836;BME280;76292;47.678;19.066;2024-02-21T08:35:24;100886.00;;;11.24;57.54
85836;BME280;76292;47.678;19.066;2024-02-21T08:37:29;100885.34;;;11.68;55.34
85836;BME280;76292;47.678;19.066;2024-02-21T08:39:29;100882.38;;;12.09;53.97
85836;BME280;76292;47.678;19.066;2024-02-21T08:41:33;100885.03;;;12.44;53.28
85836;BME280;76292;47.678;19.066;2024-02-21T08:43:34;100884.47;;;12.59;52.08
85836;BME280;76292;47.678;19.066;2024-02-21T08:45:36;100880.06;;;12.91;50.99
85836;BME280;76292;47.678;19.066;2024-02-21T08:47:39;100871.31;;;13.11;50.27
85836;BME280;76292;47.678;19.066;2024-02-21T08:49:39;100875.28;;;13.03;51.18
85836;BME280;76292;47.678;19.066;2024-02-21T08:51:40;100882.56;;;12.59;50.31
85836;BME280;76292;47.678;19.066;2024-02-21T08:53:40;100872.44;;;12.37;52.19
85836;BME280;76292;47.678;19.066;2024-02-21T08:55:48;100880.81;;;12.14;52.14
85836;BME280;76292;47.678;19.066;2024-02-21T08:57:48;100872.09;;;12.05;52.86
85836;BME280;76292;47.678;19.066;2024-02-21T08:59:49;100879.00;;;11.79;53.16
85836;BME280;76292;47.678;19.066;2024-02-21T09:01:49;100875.75;;;11.82;53.64
85836;BME280;76292;47.678;19.066;2024-02-21T09:03:49;100887.66;;;11.71;54.44
85836;BME280;76292;47.678;19.066;2024-02-21T09:05:53;100878.53;;;11.36;54.51
85836;BME280;76292;47.678;19.066;2024-02-21T09:07:54;100883.09;;;11.07;54.91
85836;BME280;76292;47.678;19.066;2024-02-21T09:09:56;100884.53;;;10.86;56.21
85836;BME280;76292;47.678;19.066;2024-02-21T09:11:56;100874.78;;;10.72;56.47
85836;BME280;76292;47.678;19.066;2024-02-21T09:14:05;100883.53;;;10.69;57.75
85836;BME280;76292;47.678;19.066;2024-02-21T09:16:06;100882.13;;;11.02;57.10
85836;BME280;76292;47.678;19.066;2024-02-21T09:18:06;100882.75;;;11.04;56.80
85836;BME280;76292;47.678;19.066;2024-02-21T09:20:06;100883.81;;;11.03;55.58
85836;BME280;76292;47.678;19.066;2024-02-21T09:22:07;100879.63;;;11.00;57.42
85836;BME280;76292;47.678;19.066;2024-02-21T09:24:10;100877.47;;;10.49;57.34
85836;BME280;76292;47.678;19.066;2024-02-21T09:26:10;100867.22;;;10.79;58.52
85836;BME280;76292;47.678;19.066;2024-02-21T09:28:13;100861.34;;;10.76;58.22
85836;BME280;76292;47.678;19.066;2024-02-21T09:30:14;100870.00;;;10.91;57.90
85836;BME280;76292;47.678;19.066;2024-02-21T09:32:14;100869.28;;;10.95;56.22
85836;BME280;76292;47.678;19.066;2024-02-21T09:34:15;100875.28;;;11.16;56.60
85836;BME280;76292;47.678;19.066;2024-02-21T09:36:15;100861.75;;;11.26;56.33
85836;BME280;76292;47.678;19.066;2024-02-21T09:38:15;100876.25;;;11.44;55.63
85836;BME280;76292;47.678;19.066;2024-02-21T09:40:19;100872.06;;;11.42;56.52
85836;BME280;76292;47.678;19.066;2024-02-21T09:42:30;100877.34;;;11.32;55.81
85836;BME280;76292;47.678;19.066;2024-02-21T09:44:40;100879.16;;;11.15;55.67
85836;BME280;76292;47.678;19.066;2024-02-21T09:47:04;100876.97;;;11.05;55.03
85836;BME280;76292;47.678;19.066;2024-02-21T09:51:28;100865.44;;;10.85;56.72
85836;BME280;76292;47.678;19.066;2024-02-21T09:53:32;100864.75;;;10.89;55.77
85836;BME280;76292;47.678;19.066;2024-02-21T09:55:37;100866.63;;;10.77;57.03
85836;BME280;76292;47.678;19.066;2024-02-21T09:57:44;100856.59;;;10.94;55.82
85836;BME280;76292;47.678;19.066;2024-02-21T09:59:44;100863.66;;;11.02;56.42
85836;BME280;76292;47.678;19.066;2024-02-21T10:01:45;100859.00;;;11.14;54.51
85836;BME280;76292;47.678;19.066;2024-02-21T10:03:52;100862.69;;;11.43;54.17
85836;BME280;76292;47.678;19.066;2024-02-21T10:05:53;100852.34;;;11.73;53.57
85836;BME280;76292;47.678;19.066;2024-02-21T10:07:53;100849.00;;;11.71;52.57
85836;BME280;76292;47.678;19.066;2024-02-21T10:10:02;100852.44;;;11.78;53.92
85836;BME280;76292;47.678;19.066;2024-02-21T10:12:10;100849.56;;;11.85;52.94
85836;BME280;76292;47.678;19.066;2024-02-21T10:14:11;100845.84;;;12.19;53.33
85836;BME280;76292;47.678;19.066;2024-02-21T10:16:11;100845.03;;;12.35;54.06
85836;BME280;76292;47.678;19.066;2024-02-21T10:18:14;100842.97;;;12.14;50.99
85836;BME280;76292;47.678;19.066;2024-02-21T10:20:17;100834.94;;;12.29;51.72
85836;BME280;76292;47.678;19.066;2024-02-21T10:22:20;100833.66;;;12.48;52.07
85836;BME280;76292;47.678;19.066;2024-02-21T10:24:29;100831.75;;;12.65;51.88
85836;BME280;76292;47.678;19.066;2024-02-21T10:26:29;100831.66;;;12.77;50.85
85836;BME280;76292;47.678;19.066;2024-02-21T10:28:29;100838.34;;;12.48;49.12
85836;BME280;76292;47.678;19.066;2024-02-21T10:30:32;100827.78;;;12.45;49.66
85836;BME280;76292;47.678;19.066;2024-02-21T10:32:35;100824.19;;;12.61;50.39
85836;BME280;76292;47.678;19.066;2024-02-21T10:34:36;100824.69;;;12.75;48.81
85836;BME280;76292;47.678;19.066;2024-02-21T10:36:36;100817.50;;;12.74;49.71